createdAt,value
2022-10-02T00:02:22.967Z,100695.69
2022-10-02T00:05:01.391Z,100687.88
2022-10-02T00:08:06.541Z,100695.25
2022-10-02T00:10:59.546Z,100702.88
2022-10-02T00:13:39.983Z,100712.22
2022-10-02T00:16:21.896Z,100700.81
2022-10-02T00:18:49.875Z,100709.19
2022-10-02T00:21:44.497Z,100705.75
2022-10-02T00:24:39.996Z,100701.34
2022-10-02T00:27:40.424Z,100713.09
2022-10-02T00:30:12.265Z,100708.81
2022-10-02T00:33:33.121Z,100720.47
2022-10-02T00:36:08.577Z,100711.53
2022-10-02T00:38:59.122Z,100721.72
2022-10-02T00:42:15.747Z,100717.03
2022-10-02T00:45:27.168Z,100722.56
2022-10-02T00:48:44.472Z,100719.88
2022-10-02T00:51:43.764Z,100724.53
2022-10-02T00:54:51.101Z,100721.97
2022-10-02T00:57:23.617Z,100729.06
2022-10-02T01:00:14.991Z,100716.69
2022-10-02T01:03:09.281Z,100722.94
2022-10-02T01:05:36.709Z,100724.78
2022-10-02T01:08:04.248Z,100729.22
2022-10-02T01:10:31.828Z,100724.19
2022-10-02T01:12:59.157Z,100721.50
2022-10-02T01:15:39.527Z,100723.22
2022-10-02T01:18:08.870Z,100719.91
2022-10-02T01:20:51.816Z,100728.00
2022-10-02T01:23:38.983Z,100728.00
2022-10-02T01:26:06.813Z,100736.22
2022-10-02T01:28:33.869Z,100743.31
2022-10-02T01:31:14.579Z,100743.31
2022-10-02T01:33:44.617Z,100738.06
2022-10-02T01:36:13.787Z,100743.09
2022-10-02T01:38:41.938Z,100737.94
2022-10-02T01:41:11.480Z,100746.38
2022-10-02T01:44:01.643Z,100755.59
2022-10-02T01:46:35.522Z,100763.41
2022-10-02T01:49:25.304Z,100767.97
2022-10-02T01:52:22.801Z,100764.28
2022-10-02T01:55:16.615Z,100756.06
2022-10-02T01:58:24.140Z,100758.38
2022-10-02T02:01:21.005Z,100755.69
2022-10-02T02:04:06.806Z,100745.34
2022-10-02T02:07:04.002Z,100762.75
2022-10-02T02:09:53.123Z,100761.53
2022-10-02T02:12:30.122Z,100761.00
2022-10-02T02:15:25.415Z,100764.84
2022-10-02T02:18:07.116Z,100762.59
2022-10-02T02:20:43.492Z,100764.06
2022-10-02T02:23:17.715Z,100754.72
2022-10-02T02:25:49.845Z,100767.81
2022-10-02T02:28:21.216Z,100763.03
2022-10-02T02:30:51.738Z,100756.53
2022-10-02T02:33:28.268Z,100752.72
2022-10-02T02:36:00.832Z,100751.13
2022-10-02T02:38:35.746Z,100756.50
2022-10-02T02:41:38.690Z,100749.97
2022-10-02T02:44:22.207Z,100751.69
2022-10-02T02:47:04.661Z,100752.56
2022-10-02T02:50:04.040Z,100748.59
2022-10-02T02:53:06.354Z,100743.59
2022-10-02T02:55:45.117Z,100750.22
2022-10-02T02:58:20.846Z,100745.78
2022-10-02T03:00:47.901Z,100751.06
2022-10-02T03:03:14.961Z,100754.75
2022-10-02T03:05:48.360Z,100755.72
2022-10-02T03:08:32.418Z,100754.88
2022-10-02T03:11:47.195Z,100765.53
2022-10-02T03:15:19.989Z,100770.22
2022-10-02T03:17:59.953Z,100763.72
2022-10-02T03:21:06.209Z,100760.38
2022-10-02T03:24:06.685Z,100763.22
2022-10-02T03:26:41.702Z,100767.19
2022-10-02T03:29:20.991Z,100776.88
2022-10-02T03:31:49.913Z,100780.44
2022-10-02T03:34:18.115Z,100772.47
2022-10-02T03:36:46.041Z,100784.00
2022-10-02T03:39:24.862Z,100781.31
2022-10-02T03:41:53.589Z,100773.44
2022-10-02T03:44:20.690Z,100779.44
2022-10-02T03:46:47.694Z,100781.16
2022-10-02T03:49:14.638Z,100776.59
2022-10-02T03:51:41.528Z,100786.44
2022-10-02T03:54:19.139Z,100782.00
2022-10-02T03:56:56.189Z,100783.13
2022-10-02T04:00:01.205Z,100769.91
2022-10-02T04:02:42.067Z,100767.59
2022-10-02T04:05:26.941Z,100778.75
2022-10-02T04:08:03.183Z,100774.31
2022-10-02T04:10:59.898Z,100766.47
2022-10-02T04:13:40.237Z,100772.00
2022-10-02T04:16:20.716Z,100768.56
2022-10-02T04:19:23.096Z,100775.81
2022-10-02T04:22:09.982Z,100773.38
2022-10-02T04:24:45.742Z,100779.88
2022-10-02T04:27:22.768Z,100781.00
2022-10-02T04:29:57.845Z,100786.88
2022-10-02T04:32:27.923Z,100792.44
2022-10-02T04:34:54.884Z,100787.28
2022-10-02T04:37:51.450Z,100797.09
2022-10-02T04:41:01.927Z,100799.19
2022-10-02T04:43:48.398Z,100803.75
2022-10-02T04:46:33.720Z,100793.91
2022-10-02T04:49:09.708Z,100797.75
2022-10-02T04:52:16.324Z,100800.81
2022-10-02T04:55:03.545Z,100802.63
2022-10-02T04:58:16.603Z,100805.59
2022-10-02T05:00:58.333Z,100801.44
2022-10-02T05:03:54.679Z,100802.53
2022-10-02T05:06:46.388Z,100806.22
2022-10-02T05:09:52.789Z,100816.41
2022-10-02T05:13:01.236Z,100810.16
2022-10-02T05:16:12.988Z,100819.34
2022-10-02T05:19:05.922Z,100816.78
2022-10-02T05:22:07.484Z,100822.44
2022-10-02T05:24:53.031Z,100816.16
2022-10-02T05:27:42.037Z,100817.28
2022-10-02T05:30:15.594Z,100815.69
2022-10-02T05:33:28.957Z,100828.31
2022-10-02T05:36:29.957Z,100826.72
2022-10-02T05:39:09.029Z,100820.59
2022-10-02T05:42:16.573Z,100823.41
2022-10-02T05:45:03.836Z,100834.06
2022-10-02T05:47:36.561Z,100833.22
2022-10-02T05:50:14.774Z,100828.81
2022-10-02T05:53:06.049Z,100823.41
2022-10-02T05:55:46.628Z,100827.97
2022-10-02T05:58:40.146Z,100839.47
2022-10-02T06:01:21.929Z,100836.78
2022-10-02T06:03:59.709Z,100833.84
2022-10-02T06:06:39.145Z,100845.25
2022-10-02T06:09:23.768Z,100844.88
2022-10-02T06:12:09.448Z,100847.56
2022-10-02T06:15:22.671Z,100856.13
2022-10-02T06:18:03.873Z,100853.22
2022-10-02T06:20:47.236Z,100851.34
2022-10-02T06:23:24.485Z,100848.41
2022-10-02T06:26:07.060Z,100866.47
2022-10-02T06:29:03.577Z,100866.31
2022-10-02T06:32:02.422Z,100865.97
2022-10-02T06:34:29.395Z,100862.75
2022-10-02T06:37:32.065Z,100868.03
2022-10-02T06:40:25.536Z,100870.56
2022-10-02T06:43:44.194Z,100876.59
2022-10-02T06:46:35.266Z,100878.03
2022-10-02T06:49:25.053Z,100878.25
2022-10-02T06:52:04.496Z,100882.88
2022-10-02T06:54:43.237Z,100893.03
2022-10-02T06:58:04.011Z,100888.13
2022-10-02T07:00:38.284Z,100879.50
2022-10-02T07:03:49.536Z,100877.97
2022-10-02T07:06:25.234Z,100888.59
2022-10-02T07:09:00.994Z,100896.09
2022-10-02T07:11:59.204Z,100902.69
2022-10-02T07:14:52.614Z,100904.31
2022-10-02T07:17:47.262Z,100905.38
2022-10-02T07:20:52.730Z,100902.88
2022-10-02T07:24:07.748Z,100903.69
2022-10-02T07:27:14.896Z,100902.75
2022-10-02T07:29:47.320Z,100904.66
2022-10-02T07:32:35.805Z,100906.69
2022-10-02T07:35:42.677Z,100908.31
2022-10-02T07:38:56.154Z,100916.06
2022-10-02T07:41:53.646Z,100916.41
2022-10-02T07:45:04.501Z,100922.75
2022-10-02T07:48:12.899Z,100929.06
2022-10-02T07:51:49.878Z,100924.84
2022-10-02T07:54:33.570Z,100937.81
2022-10-02T07:57:20.416Z,100938.97
2022-10-02T07:59:52.946Z,100939.69
2022-10-02T08:02:57.364Z,100941.00
2022-10-02T08:06:08.065Z,100935.72
2022-10-02T08:09:02.806Z,100946.44
2022-10-02T08:11:53.805Z,100944.28
2022-10-02T08:14:32.230Z,100936.41
2022-10-02T08:17:27.595Z,100945.13
2022-10-02T08:20:02.186Z,100940.81
2022-10-02T08:22:43.100Z,100953.69
2022-10-02T08:25:20.614Z,100947.41
2022-10-02T08:28:05.218Z,100953.41
2022-10-02T08:30:32.344Z,100956.63
2022-10-02T08:32:59.297Z,100958.31
2022-10-02T08:36:00.694Z,100960.09
2022-10-02T08:39:00.236Z,100963.22
2022-10-02T08:42:07.617Z,100967.38
2022-10-02T08:45:09.753Z,100971.84
2022-10-02T08:48:07.486Z,100962.91
2022-10-02T08:51:01.633Z,100969.31
2022-10-02T08:54:15.517Z,100980.28
2022-10-02T08:56:51.393Z,100981.13
2022-10-02T08:59:44.576Z,100980.44
2022-10-02T09:02:44.641Z,100976.00
2022-10-02T09:06:03.111Z,100975.22
2022-10-02T09:09:16.093Z,100976.84
2022-10-02T09:11:54.654Z,100980.66
2022-10-02T09:14:44.033Z,100987.69
2022-10-02T09:17:32.657Z,100978.31
2022-10-02T09:20:23.836Z,100978.91
2022-10-02T09:23:48.726Z,100973.78
2022-10-02T09:26:43.189Z,100985.38
2022-10-02T09:29:44.723Z,100980.41
2022-10-02T09:32:35.741Z,100979.38
2022-10-02T09:35:39.292Z,100982.06
2022-10-02T09:38:39.424Z,100993.97
2022-10-02T09:41:50.051Z,100988.22
2022-10-02T09:44:48.850Z,100991.66
2022-10-02T09:48:08.697Z,100991.81
2022-10-02T09:51:13.767Z,100995.19
2022-10-02T09:54:36.806Z,100987.06
2022-10-02T09:57:25.232Z,100997.78
2022-10-02T10:00:25.565Z,100993.28
2022-10-02T10:03:23.332Z,100994.59
2022-10-02T10:06:21.057Z,100982.38
2022-10-02T10:09:15.929Z,100988.44
2022-10-02T10:12:19.773Z,100981.56
2022-10-02T10:15:19.968Z,100977.94
2022-10-02T10:18:15.296Z,100973.84
2022-10-02T10:21:46.410Z,100969.00
2022-10-02T10:24:47.265Z,100974.22
2022-10-02T10:27:31.801Z,100969.38
2022-10-02T10:30:21.387Z,100961.47
2022-10-02T10:33:19.757Z,100972.69
2022-10-02T10:37:03.102Z,100986.06
2022-10-02T10:40:03.737Z,100989.78
2022-10-02T10:43:16.572Z,100984.41
2022-10-02T10:46:13.447Z,100982.97
2022-10-02T10:49:04.624Z,100996.66
2022-10-02T10:52:16.111Z,101008.53
2022-10-02T10:55:19.189Z,100997.75
2022-10-02T10:58:05.047Z,100999.59
2022-10-02T11:01:01.554Z,100999.94
2022-10-02T11:04:21.341Z,101007.53
2022-10-02T11:07:28.187Z,101009.63
2022-10-02T11:10:07.665Z,101012.91
2022-10-02T11:12:55.563Z,101004.03
2022-10-02T11:16:02.580Z,101014.47
2022-10-02T11:18:46.785Z,101014.47
2022-10-02T11:21:41.178Z,101012.38
2022-10-02T11:24:49.042Z,101019.38
2022-10-02T11:28:06.065Z,101016.22
2022-10-02T11:31:19.381Z,101033.41
2022-10-02T11:34:42.584Z,101038.72
2022-10-02T11:37:45.131Z,101028.63
2022-10-02T11:40:23.909Z,101029.13
2022-10-02T11:43:43.929Z,101039.00
2022-10-02T11:46:36.505Z,101046.25
2022-10-02T11:49:27.532Z,101050.31
2022-10-02T11:52:20.897Z,101050.81
2022-10-02T11:55:26.153Z,101055.41
2022-10-02T11:58:21.816Z,101050.97
2022-10-02T12:01:45.484Z,101047.50
2022-10-02T12:04:49.487Z,101045.97
2022-10-02T12:07:35.927Z,101047.47
2022-10-02T12:10:20.986Z,101050.03
2022-10-02T12:13:36.713Z,101056.66
2022-10-02T12:16:28.083Z,101040.16
2022-10-02T12:19:21.982Z,101044.53
2022-10-02T12:22:12.982Z,101046.25
2022-10-02T12:25:37.230Z,101041.22
2022-10-02T12:28:45.043Z,101048.88
2022-10-02T12:31:51.093Z,101047.09
2022-10-02T12:34:38.214Z,101058.19
2022-10-02T12:38:02.366Z,101066.59
2022-10-02T12:41:32.539Z,101068.47
2022-10-02T12:44:11.325Z,101079.06
2022-10-02T12:47:01.365Z,101093.88
2022-10-02T12:50:17.238Z,101092.47
2022-10-02T12:53:33.025Z,101086.84
2022-10-02T12:56:26.236Z,101084.34
2022-10-02T12:59:11.737Z,101084.91
2022-10-02T13:02:56.077Z,101093.91
2022-10-02T13:05:46.773Z,101095.66
2022-10-02T13:08:49.711Z,101093.13
2022-10-02T13:11:41.138Z,101102.47
2022-10-02T13:14:39.178Z,101101.59
2022-10-02T13:17:26.769Z,101104.66
2022-10-02T13:20:10.910Z,101090.47
2022-10-02T13:23:13.430Z,101100.28
2022-10-02T13:26:16.876Z,101095.34
2022-10-02T13:29:18.366Z,101102.63
2022-10-02T13:32:10.052Z,101088.69
2022-10-02T13:35:01.114Z,101098.34
2022-10-02T13:38:01.022Z,101101.25
2022-10-02T13:40:58.035Z,101105.34
2022-10-02T13:43:56.397Z,101096.00
2022-10-02T13:47:06.135Z,101102.63
2022-10-02T13:50:02.562Z,101093.47
2022-10-02T13:52:50.468Z,101101.78
2022-10-02T13:55:24.577Z,101090.66
2022-10-02T13:58:19.600Z,101104.25
2022-10-02T14:01:17.336Z,101096.66
2022-10-02T14:04:13.462Z,101093.59
2022-10-02T14:06:55.428Z,101092.53
2022-10-02T14:09:54.422Z,101100.13
2022-10-02T14:13:00.967Z,101109.66
2022-10-02T14:15:57.020Z,101126.03
2022-10-02T14:19:04.663Z,101140.31
2022-10-02T14:22:23.111Z,101142.16
2022-10-02T14:25:01.569Z,101153.09
2022-10-02T14:27:31.735Z,101144.56
2022-10-02T14:30:07.205Z,101140.50
2022-10-02T14:33:06.585Z,101145.72
2022-10-02T14:35:40.086Z,101150.84
2022-10-02T14:38:35.671Z,101156.06
2022-10-02T14:41:31.038Z,101158.13
2022-10-02T14:44:25.655Z,101167.28
2022-10-02T14:47:21.367Z,101165.44
2022-10-02T14:50:14.364Z,101166.53
2022-10-02T14:53:01.020Z,101170.53
2022-10-02T14:55:49.281Z,101156.84
2022-10-02T14:58:59.353Z,101165.56
2022-10-02T15:01:26.870Z,101158.41
2022-10-02T15:04:38.610Z,101165.44
2022-10-02T15:07:21.101Z,101168.69
2022-10-02T15:09:58.254Z,101174.53
2022-10-02T15:12:43.795Z,101156.59
2022-10-02T15:15:36.512Z,101168.13
2022-10-02T15:18:39.187Z,101171.94
2022-10-02T15:21:26.956Z,101174.88
2022-10-02T15:23:58.562Z,101187.31
2022-10-02T15:26:52.098Z,101178.06
2022-10-02T15:29:50.942Z,101190.38
2022-10-02T15:32:52.134Z,101179.16
2022-10-02T15:35:51.013Z,101197.03
2022-10-02T15:38:50.583Z,101195.97
2022-10-02T15:41:45.702Z,101192.28
2022-10-02T15:45:02.922Z,101203.06
2022-10-02T15:48:10.398Z,101201.50
2022-10-02T15:51:11.996Z,101194.66
2022-10-02T15:53:41.632Z,101210.44
2022-10-02T15:56:35.965Z,101211.47
2022-10-02T15:59:37.365Z,101211.34
2022-10-02T16:02:15.291Z,101218.19
2022-10-02T16:05:12.546Z,101227.09
2022-10-02T16:08:40.644Z,101241.81
2022-10-02T16:11:19.382Z,101243.44
2022-10-02T16:13:52.274Z,101245.84
2022-10-02T16:16:38.924Z,101243.72
2022-10-02T16:19:28.353Z,101255.00
2022-10-02T16:22:20.126Z,101253.56
2022-10-02T16:25:06.416Z,101254.84
2022-10-02T16:28:23.706Z,101267.41
2022-10-02T16:30:50.623Z,101268.00
2022-10-02T16:33:39.873Z,101272.69
2022-10-02T16:36:38.089Z,101289.41
2022-10-02T16:39:31.892Z,101292.38
2022-10-02T16:42:21.402Z,101294.00
2022-10-02T16:45:04.406Z,101295.56
2022-10-02T16:47:51.003Z,101296.13
2022-10-02T16:50:56.515Z,101300.53
2022-10-02T16:53:41.887Z,101307.47
2022-10-02T16:56:32.285Z,101304.44
2022-10-02T16:59:29.166Z,101316.94
2022-10-02T17:02:18.616Z,101320.34
2022-10-02T17:05:07.952Z,101321.19
2022-10-02T17:08:05.676Z,101330.00
2022-10-02T17:10:46.416Z,101328.16
2022-10-02T17:13:33.088Z,101338.75
2022-10-02T17:16:12.456Z,101331.31
2022-10-02T17:18:58.287Z,101352.44
2022-10-02T17:21:46.092Z,101355.81
2022-10-02T17:24:46.711Z,101356.88
2022-10-02T17:27:35.666Z,101367.28
2022-10-02T17:30:24.275Z,101373.56
2022-10-02T17:33:08.314Z,101384.78
2022-10-02T17:35:54.701Z,101389.03
2022-10-02T17:38:39.652Z,101391.69
2022-10-02T17:41:34.963Z,101406.25
2022-10-02T17:44:35.485Z,101411.47
2022-10-02T17:47:29.658Z,101418.09
2022-10-02T17:50:39.362Z,101428.72
2022-10-02T17:53:45.329Z,101425.28
2022-10-02T17:56:49.905Z,101428.75
2022-10-02T17:59:58.109Z,101435.94
2022-10-02T18:03:02.408Z,101446.25
2022-10-02T18:05:59.313Z,101435.31
2022-10-02T18:08:59.954Z,101453.69
2022-10-02T18:12:08.734Z,101453.28
2022-10-02T18:15:09.738Z,101461.19
2022-10-02T18:17:42.614Z,101462.78
2022-10-02T18:20:52.688Z,101465.72
2022-10-02T18:23:22.654Z,101468.09
2022-10-02T18:26:18.916Z,101454.88
2022-10-02T18:29:28.998Z,101470.38
2022-10-02T18:32:19.066Z,101478.25
2022-10-02T18:35:08.305Z,101476.25
2022-10-02T18:37:44.917Z,101484.09
2022-10-02T18:40:51.850Z,101488.25
2022-10-02T18:43:43.233Z,101490.69
2022-10-02T18:46:49.400Z,101494.63
2022-10-02T18:49:47.056Z,101498.66
2022-10-02T18:53:15.327Z,101501.84
2022-10-02T18:56:03.128Z,101508.44
2022-10-02T18:58:48.878Z,101509.41
2022-10-02T19:02:19.683Z,101519.63
2022-10-02T19:05:17.022Z,101527.09
2022-10-02T19:08:03.301Z,101520.22
2022-10-02T19:10:33.166Z,101528.53
2022-10-02T19:13:18.595Z,101523.25
2022-10-02T19:15:48.449Z,101525.53
2022-10-02T19:18:21.244Z,101526.66
2022-10-02T19:20:58.290Z,101526.97
2022-10-02T19:23:50.252Z,101542.69
2022-10-02T19:26:23.500Z,101540.09
2022-10-02T19:28:59.447Z,101549.28
2022-10-02T19:31:29.625Z,101555.78
2022-10-02T19:34:02.557Z,101549.00
2022-10-02T19:36:36.539Z,101553.44
2022-10-02T19:39:10.305Z,101548.22
2022-10-02T19:41:43.152Z,101543.72
2022-10-02T19:44:34.037Z,101559.16
2022-10-02T19:47:13.013Z,101557.66
2022-10-02T19:49:43.621Z,101562.06
2022-10-02T19:52:55.277Z,101566.19
2022-10-02T19:55:33.981Z,101568.75
2022-10-02T19:58:09.606Z,101570.63
2022-10-02T20:00:40.343Z,101568.13
2022-10-02T20:03:15.873Z,101577.31
2022-10-02T20:05:44.182Z,101570.75
2022-10-02T20:08:19.295Z,101565.06
2022-10-02T20:11:27.615Z,101574.13
2022-10-02T20:14:16.797Z,101576.28
2022-10-02T20:17:04.057Z,101581.16
2022-10-02T20:19:39.189Z,101580.41
2022-10-02T20:22:41.279Z,101584.19
2022-10-02T20:25:28.860Z,101589.78
2022-10-02T20:28:37.410Z,101590.13
2022-10-02T20:31:14.175Z,101591.41
2022-10-02T20:33:48.688Z,101599.19
2022-10-02T20:36:31.124Z,101601.88
2022-10-02T20:39:05.798Z,101593.47
2022-10-02T20:41:47.236Z,101607.38
2022-10-02T20:44:14.473Z,101601.00
2022-10-02T20:46:47.616Z,101608.91
2022-10-02T20:50:12.062Z,101614.41
2022-10-02T20:53:02.781Z,101625.94
2022-10-02T20:55:47.794Z,101634.28
2022-10-02T20:58:48.670Z,101631.59
2022-10-02T21:01:54.459Z,101637.06
2022-10-02T21:04:58.296Z,101639.13
2022-10-02T21:08:00.453Z,101638.28
2022-10-02T21:10:54.979Z,101637.38
2022-10-02T21:14:26.721Z,101640.84
2022-10-02T21:17:41.854Z,101637.63
2022-10-02T21:20:56.850Z,101651.97
2022-10-02T21:24:16.189Z,101637.72
2022-10-02T21:27:10.142Z,101648.50
2022-10-02T21:30:00.390Z,101642.38
2022-10-02T21:32:33.523Z,101654.03
2022-10-02T21:35:14.154Z,101650.47
2022-10-02T21:38:27.836Z,101665.59
2022-10-02T21:41:40.889Z,101660.50
2022-10-02T21:44:41.914Z,101667.41
2022-10-02T21:48:06.294Z,101668.41
2022-10-02T21:51:12.140Z,101678.56
2022-10-02T21:54:11.488Z,101678.56
2022-10-02T21:57:18.378Z,101686.84
2022-10-02T22:00:22.313Z,101688.91
2022-10-02T22:03:19.957Z,101683.91
2022-10-02T22:06:11.470Z,101690.94
2022-10-02T22:08:55.002Z,101695.69
2022-10-02T22:11:37.278Z,101699.34
2022-10-02T22:14:23.178Z,101699.53
2022-10-02T22:17:23.578Z,101706.03
2022-10-02T22:20:06.774Z,101708.06
2022-10-02T22:22:47.214Z,101721.75
2022-10-02T22:25:32.162Z,101726.41
2022-10-02T22:28:14.283Z,101724.84
2022-10-02T22:30:55.937Z,101727.66
2022-10-02T22:34:25.949Z,101730.00
2022-10-02T22:38:05.834Z,101732.22
2022-10-02T22:40:51.121Z,101732.63
2022-10-02T22:43:57.319Z,101737.38
2022-10-02T22:47:07.430Z,101739.19
2022-10-02T22:49:46.588Z,101735.81
2022-10-02T22:52:22.262Z,101744.13
2022-10-02T22:55:18.772Z,101746.06
2022-10-02T22:58:09.097Z,101748.09
2022-10-02T23:00:55.325Z,101749.91
2022-10-02T23:03:41.789Z,101744.78
2022-10-02T23:06:33.191Z,101747.59
2022-10-02T23:09:35.855Z,101750.41
2022-10-02T23:12:11.969Z,101740.00
2022-10-02T23:15:00.718Z,101738.06
2022-10-02T23:17:59.533Z,101750.78
2022-10-02T23:20:43.073Z,101748.19
2022-10-02T23:23:25.501Z,101756.38
2022-10-02T23:26:01.833Z,101757.34
2022-10-02T23:29:27.258Z,101755.78
2022-10-02T23:32:06.737Z,101749.94
2022-10-02T23:34:55.034Z,101751.84
2022-10-02T23:37:32.313Z,101759.09
2022-10-02T23:40:47.648Z,101766.19
2022-10-02T23:43:25.993Z,101765.34
2022-10-02T23:46:03.498Z,101760.13
2022-10-02T23:48:32.355Z,101755.88
2022-10-02T23:51:34.820Z,101766.53
2022-10-02T23:54:23.035Z,101776.66
2022-10-02T23:57:29.782Z,101777.53
